createdAt,value
2022-10-03T00:00:11.905Z,3.40
2022-10-03T00:03:12.119Z,4.47
2022-10-03T00:05:54.494Z,4.68
2022-10-03T00:08:43.237Z,4.63
2022-10-03T00:11:23.448Z,4.72
2022-10-03T00:14:01.559Z,6.00
2022-10-03T00:16:40.459Z,5.25
2022-10-03T00:19:17.628Z,6.97
2022-10-03T00:21:56.540Z,6.13
2022-10-03T00:24:33.955Z,5.95
2022-10-03T00:27:07.674Z,6.25
2022-10-03T00:29:46.367Z,5.53
2022-10-03T00:32:27.686Z,4.90
2022-10-03T00:35:09.658Z,4.57
2022-10-03T00:37:41.322Z,5.25
2022-10-03T00:40:37.639Z,4.18
2022-10-03T00:43:51.342Z,3.97
2022-10-03T00:46:35.248Z,3.83
2022-10-03T00:49:45.228Z,4.13
2022-10-03T00:52:41.020Z,3.70
2022-10-03T00:55:23.771Z,3.97
2022-10-03T00:58:40.566Z,4.13
2022-10-03T01:01:24.732Z,5.75
2022-10-03T01:04:05.620Z,5.22
2022-10-03T01:06:43.376Z,5.20
2022-10-03T01:09:29.285Z,4.22
2022-10-03T01:12:09.716Z,4.32
2022-10-03T01:14:57.267Z,4.43
2022-10-03T01:17:35.927Z,4.13
2022-10-03T01:20:16.694Z,3.35
2022-10-03T01:23:10.651Z,3.22
2022-10-03T01:25:49.083Z,3.38
2022-10-03T01:28:58.508Z,3.13
2022-10-03T01:31:34.268Z,4.30
2022-10-03T01:34:08.594Z,5.13
2022-10-03T01:36:44.007Z,5.25
2022-10-03T01:39:20.308Z,5.20
2022-10-03T01:41:53.613Z,6.47
2022-10-03T01:44:27.673Z,6.15
2022-10-03T01:47:06.431Z,6.18
2022-10-03T01:49:42.656Z,5.43
2022-10-03T01:52:16.699Z,6.43
2022-10-03T01:54:52.053Z,5.57
2022-10-03T01:57:26.880Z,5.85
2022-10-03T02:00:04.717Z,4.90
2022-10-03T02:02:37.948Z,5.45
2022-10-03T02:05:12.846Z,5.13
2022-10-03T02:07:50.314Z,4.47
2022-10-03T02:10:25.802Z,4.60
2022-10-03T02:13:06.703Z,4.78
2022-10-03T02:15:50.029Z,4.78
2022-10-03T02:18:26.780Z,4.95
2022-10-03T02:21:05.684Z,4.68
2022-10-03T02:23:43.910Z,4.55
2022-10-03T02:26:46.298Z,4.30
2022-10-03T02:32:35.126Z,3.97
2022-10-03T02:35:45.739Z,4.65
2022-10-03T02:38:51.222Z,3.30
2022-10-03T02:41:36.782Z,3.25
2022-10-03T02:44:36.056Z,3.40
2022-10-03T02:47:42.860Z,3.53
2022-10-03T02:50:55.902Z,2.80
2022-10-03T02:54:07.048Z,3.00
2022-10-03T02:57:16.533Z,2.65
2022-10-03T03:00:07.418Z,2.92
2022-10-03T03:03:07.175Z,3.42
2022-10-03T03:06:25.522Z,3.30
2022-10-03T03:09:18.914Z,3.50
2022-10-03T03:12:14.164Z,4.32
2022-10-03T03:15:14.058Z,4.40
2022-10-03T03:17:50.387Z,4.68
2022-10-03T03:20:41.298Z,4.32
2022-10-03T03:23:30.102Z,3.97
2022-10-03T03:26:23.475Z,3.55
2022-10-03T03:29:00.316Z,3.03
2022-10-03T03:31:35.476Z,3.70
2022-10-03T03:34:14.665Z,4.80
2022-10-03T03:36:51.631Z,4.07
2022-10-03T03:39:40.282Z,3.38
2022-10-03T03:42:40.371Z,3.70
2022-10-03T03:45:30.975Z,3.60
2022-10-03T03:48:15.763Z,3.13
2022-10-03T03:51:05.222Z,2.90
2022-10-03T03:53:59.112Z,3.20
2022-10-03T03:57:02.482Z,3.20
2022-10-03T04:00:04.979Z,3.60
2022-10-03T04:05:28.074Z,3.40
2022-10-03T04:08:12.354Z,3.17
2022-10-03T04:10:51.018Z,3.03
2022-10-03T04:13:37.977Z,3.20
2022-10-03T04:16:40.564Z,3.15
2022-10-03T04:19:18.265Z,4.00
2022-10-03T04:22:15.702Z,3.03
2022-10-03T04:25:27.383Z,2.40
2022-10-03T04:28:15.924Z,2.50
2022-10-03T04:30:57.122Z,2.35
2022-10-03T04:33:35.455Z,2.28
2022-10-03T04:36:35.550Z,2.10
2022-10-03T04:39:11.095Z,2.30
2022-10-03T04:41:49.668Z,2.35
2022-10-03T04:44:34.798Z,2.20
2022-10-03T04:47:09.268Z,2.47
2022-10-03T04:49:44.001Z,3.05
2022-10-03T04:52:21.559Z,2.80
2022-10-03T04:54:58.281Z,3.55
2022-10-03T04:57:33.024Z,3.08
2022-10-03T05:00:10.158Z,4.30
2022-10-03T05:02:52.629Z,3.67
2022-10-03T05:05:44.646Z,4.80
2022-10-03T05:08:34.742Z,4.20
2022-10-03T05:11:11.065Z,3.17
2022-10-03T05:13:50.352Z,3.35
2022-10-03T05:16:29.201Z,2.63
2022-10-03T05:19:06.563Z,2.58
2022-10-03T05:21:41.816Z,3.15
2022-10-03T05:24:20.898Z,3.25
2022-10-03T05:26:58.978Z,3.45
2022-10-03T05:29:38.634Z,3.28
2022-10-03T05:32:19.100Z,3.30
2022-10-03T05:35:04.010Z,4.07
2022-10-03T05:37:58.837Z,4.40
2022-10-03T05:40:29.501Z,4.63
2022-10-03T05:43:08.188Z,4.05
2022-10-03T05:45:49.121Z,3.50
2022-10-03T05:48:31.759Z,3.00
2022-10-03T05:51:44.550Z,2.45
2022-10-03T05:54:50.938Z,2.88
2022-10-03T05:57:47.907Z,2.95
2022-10-03T06:00:23.655Z,3.17
2022-10-03T06:03:26.218Z,3.78
2022-10-03T06:06:21.100Z,3.58
2022-10-03T06:09:25.175Z,2.92
2022-10-03T06:12:14.241Z,3.97
2022-10-03T06:15:21.675Z,3.72
2022-10-03T06:18:02.429Z,3.65
2022-10-03T06:21:05.000Z,3.35
2022-10-03T06:24:03.962Z,3.35
2022-10-03T06:26:58.119Z,3.40
2022-10-03T06:29:57.083Z,2.80
2022-10-03T06:32:58.452Z,3.30
2022-10-03T06:35:54.028Z,3.17
2022-10-03T06:38:58.073Z,3.38
2022-10-03T06:42:01.138Z,3.28
2022-10-03T06:44:57.187Z,3.67
2022-10-03T06:47:51.380Z,3.85
2022-10-03T06:50:50.395Z,4.30
2022-10-03T06:53:41.053Z,4.20
2022-10-03T06:56:40.532Z,3.80
2022-10-03T06:59:32.350Z,3.05
2022-10-03T07:02:38.922Z,4.95
2022-10-03T07:05:56.606Z,4.00
2022-10-03T07:08:56.178Z,4.20
2022-10-03T07:12:18.033Z,4.75
2022-10-03T07:15:50.124Z,3.93
2022-10-03T07:18:54.005Z,5.32
2022-10-03T07:22:04.345Z,5.40
2022-10-03T07:25:23.219Z,5.20
2022-10-03T07:28:23.462Z,7.05
2022-10-03T07:31:02.909Z,7.32
2022-10-03T07:34:04.376Z,8.75
2022-10-03T07:37:07.616Z,10.00
2022-10-03T07:40:01.931Z,8.23
2022-10-03T07:43:01.788Z,8.63
2022-10-03T07:45:39.566Z,7.97
2022-10-03T07:48:40.139Z,7.65
2022-10-03T07:51:20.025Z,6.97
2022-10-03T07:54:24.724Z,7.22
2022-10-03T07:57:10.858Z,6.72
2022-10-03T08:00:02.533Z,7.18
2022-10-03T08:03:05.890Z,7.57
2022-10-03T08:05:50.678Z,11.10
2022-10-03T08:08:53.054Z,9.98
2022-10-03T08:14:14.907Z,8.20
2022-10-03T08:17:23.194Z,8.02
2022-10-03T08:20:18.586Z,9.55
2022-10-03T08:23:03.350Z,8.52
2022-10-03T08:25:51.037Z,9.23
2022-10-03T08:28:48.225Z,8.68
2022-10-03T08:31:48.370Z,7.97
2022-10-03T08:34:45.213Z,7.72
2022-10-03T08:37:41.490Z,7.53
2022-10-03T08:40:53.576Z,7.57
2022-10-03T08:43:55.916Z,8.43
2022-10-03T08:47:15.637Z,7.22
2022-10-03T08:50:28.115Z,7.28
2022-10-03T08:55:55.693Z,7.95
2022-10-03T08:59:03.854Z,7.60
2022-10-03T09:01:59.283Z,7.25
2022-10-03T09:05:09.036Z,7.85
2022-10-03T09:08:17.094Z,7.28
2022-10-03T09:11:16.412Z,6.53
2022-10-03T09:14:36.847Z,6.43
2022-10-03T09:17:43.056Z,7.30
2022-10-03T09:20:43.107Z,6.63
2022-10-03T09:23:41.577Z,5.63
2022-10-03T09:26:38.037Z,6.93
2022-10-03T09:29:35.689Z,6.80
2022-10-03T09:32:35.976Z,6.28
2022-10-03T09:35:29.609Z,6.00
2022-10-03T09:38:28.771Z,6.50
2022-10-03T09:41:31.666Z,7.00
2022-10-03T09:44:33.982Z,5.15
2022-10-03T09:50:47.292Z,5.13
2022-10-03T09:54:04.390Z,5.45
2022-10-03T09:57:03.490Z,4.50
2022-10-03T09:59:52.709Z,5.75
2022-10-03T10:02:55.679Z,4.30
2022-10-03T10:05:59.281Z,4.30
2022-10-03T10:08:56.227Z,4.28
2022-10-03T10:11:37.718Z,3.38
2022-10-03T10:14:45.458Z,3.20
2022-10-03T10:17:58.743Z,3.72
2022-10-03T10:20:55.871Z,4.65
2022-10-03T10:23:47.871Z,4.18
2022-10-03T10:26:46.259Z,11.88
2022-10-03T10:29:48.512Z,4.90
2022-10-03T10:32:59.074Z,3.45
2022-10-03T10:36:07.195Z,2.75
2022-10-03T10:39:14.427Z,2.85
2022-10-03T10:42:16.132Z,2.92
2022-10-03T10:45:16.532Z,3.78
2022-10-03T10:48:18.171Z,3.17
2022-10-03T10:51:22.430Z,2.60
2022-10-03T10:54:23.937Z,2.03
2022-10-03T10:57:23.776Z,2.93
2022-10-03T11:00:21.435Z,2.70
2022-10-03T11:03:29.219Z,3.85
2022-10-03T11:06:53.536Z,3.20
2022-10-03T11:09:53.036Z,3.15
2022-10-03T11:13:00.903Z,2.38
2022-10-03T11:16:13.869Z,2.47
2022-10-03T11:19:32.741Z,3.40
2022-10-03T11:22:46.324Z,2.60
2022-10-03T11:25:51.809Z,2.15
2022-10-03T11:29:09.234Z,2.42
2022-10-03T11:32:24.677Z,3.35
2022-10-03T11:35:28.307Z,2.30
2022-10-03T11:38:02.652Z,1.73
2022-10-03T11:40:41.340Z,1.83
2022-10-03T11:43:51.574Z,1.40
2022-10-03T11:46:32.867Z,1.50
2022-10-03T11:49:05.545Z,1.50
2022-10-03T11:51:44.993Z,1.63
2022-10-03T11:54:31.670Z,1.30
2022-10-03T11:57:06.919Z,1.73
2022-10-03T12:00:00.437Z,1.40
2022-10-03T12:03:01.623Z,2.30
2022-10-03T12:05:44.588Z,1.83
2022-10-03T12:08:40.191Z,1.38
2022-10-03T12:11:15.697Z,3.22
2022-10-03T12:13:51.960Z,3.10
2022-10-03T12:16:29.599Z,2.28
2022-10-03T12:19:06.238Z,1.88
2022-10-03T12:21:46.267Z,2.10
2022-10-03T12:24:25.917Z,1.48
2022-10-03T12:27:00.503Z,1.75
2022-10-03T12:29:32.519Z,1.35
2022-10-03T12:32:29.672Z,1.75
2022-10-03T12:35:08.800Z,1.95
2022-10-03T12:38:00.275Z,1.95
2022-10-03T12:40:33.212Z,1.55
2022-10-03T12:43:12.038Z,1.73
2022-10-03T12:45:44.155Z,1.92
2022-10-03T12:48:27.911Z,1.52
2022-10-03T12:51:04.155Z,1.38
2022-10-03T12:53:38.922Z,1.50
2022-10-03T12:56:14.940Z,1.80
2022-10-03T12:59:08.852Z,2.40
2022-10-03T13:02:05.171Z,1.88
2022-10-03T13:04:42.042Z,2.42
2022-10-03T13:07:20.876Z,2.13
2022-10-03T13:10:05.123Z,2.00
2022-10-03T13:12:43.947Z,1.55
2022-10-03T13:15:49.424Z,1.55
2022-10-03T13:18:35.298Z,1.40
2022-10-03T13:21:33.459Z,1.95
2022-10-03T13:24:03.034Z,2.25
2022-10-03T13:26:46.752Z,2.00
2022-10-03T13:29:26.203Z,2.50
2022-10-03T13:32:24.924Z,1.95
2022-10-03T13:35:23.275Z,2.42
2022-10-03T13:38:17.926Z,1.90
2022-10-03T13:40:53.012Z,1.80
2022-10-03T13:43:26.779Z,2.42
2022-10-03T13:45:57.963Z,1.77
2022-10-03T13:48:28.531Z,1.92
2022-10-03T13:51:02.430Z,1.83
2022-10-03T13:54:01.247Z,2.17
2022-10-03T13:56:42.538Z,2.40
2022-10-03T13:59:26.283Z,1.88
2022-10-03T14:02:06.331Z,1.58
2022-10-03T14:04:59.903Z,1.80
2022-10-03T14:07:39.860Z,2.20
2022-10-03T14:10:21.950Z,1.50
2022-10-03T14:13:03.299Z,1.70
2022-10-03T14:15:40.628Z,2.95
2022-10-03T14:18:19.567Z,1.85
2022-10-03T14:21:18.749Z,1.65
2022-10-03T14:23:52.413Z,1.85
2022-10-03T14:26:32.142Z,1.83
2022-10-03T14:29:06.236Z,3.30
2022-10-03T14:31:40.966Z,7.50
2022-10-03T14:34:21.628Z,9.85
2022-10-03T14:36:55.199Z,7.22
2022-10-03T14:39:36.918Z,7.47
2022-10-03T14:42:32.450Z,11.05
2022-10-03T14:45:08.114Z,5.75
2022-10-03T14:47:40.363Z,6.40
2022-10-03T14:50:17.029Z,7.53
2022-10-03T14:52:50.209Z,4.78
2022-10-03T14:55:27.560Z,4.18
2022-10-03T14:58:10.612Z,6.80
2022-10-03T15:00:44.241Z,3.78
2022-10-03T15:03:33.798Z,3.55
2022-10-03T15:06:20.834Z,5.25
2022-10-03T15:08:53.309Z,4.30
2022-10-03T15:11:27.255Z,4.60
2022-10-03T15:14:02.425Z,6.70
2022-10-03T15:16:34.683Z,4.68
2022-10-03T15:19:09.431Z,6.15
2022-10-03T15:21:39.315Z,5.60
2022-10-03T15:24:12.717Z,3.90
2022-10-03T15:26:50.578Z,4.15
2022-10-03T15:29:22.487Z,3.40
2022-10-03T15:34:21.935Z,2.80
2022-10-03T15:36:55.897Z,2.58
2022-10-03T15:39:29.542Z,2.45
2022-10-03T15:42:04.681Z,2.65
2022-10-03T15:44:40.123Z,2.10
2022-10-03T15:47:14.119Z,4.03
2022-10-03T15:49:50.268Z,3.50
2022-10-03T15:52:23.056Z,3.55
2022-10-03T15:55:06.728Z,3.03
2022-10-03T15:57:45.891Z,2.78
2022-10-03T16:00:29.864Z,2.15
2022-10-03T16:03:08.670Z,2.72
2022-10-03T16:05:38.107Z,2.55
2022-10-03T16:08:10.825Z,2.58
2022-10-03T16:10:43.601Z,2.97
2022-10-03T16:13:30.627Z,3.35
2022-10-03T16:16:29.421Z,3.10
2022-10-03T16:19:10.663Z,3.35
2022-10-03T16:21:46.688Z,3.07
2022-10-03T16:24:23.690Z,3.55
2022-10-03T16:26:56.481Z,2.28
2022-10-03T16:29:28.949Z,2.17
2022-10-03T16:32:04.494Z,3.13
2022-10-03T16:34:34.327Z,3.25
2022-10-03T16:37:06.916Z,2.92
2022-10-03T16:39:38.587Z,3.42
2022-10-03T16:42:14.806Z,3.65
2022-10-03T16:44:51.958Z,4.25
2022-10-03T16:47:32.666Z,3.38
2022-10-03T16:50:19.503Z,2.90
2022-10-03T16:52:52.257Z,2.10
2022-10-03T16:55:27.316Z,6.80
2022-10-03T16:57:59.380Z,5.78
2022-10-03T17:00:34.647Z,3.25
2022-10-03T17:03:15.758Z,2.60
2022-10-03T17:05:48.272Z,2.67
2022-10-03T17:08:40.636Z,2.50
2022-10-03T17:11:09.450Z,3.13
2022-10-03T17:13:46.883Z,2.35
2022-10-03T17:16:22.409Z,2.20
2022-10-03T17:19:09.452Z,2.67
2022-10-03T17:21:41.083Z,2.50
2022-10-03T17:26:43.864Z,2.85
2022-10-03T17:29:18.115Z,3.03
2022-10-03T17:31:49.652Z,2.55
2022-10-03T17:34:23.108Z,2.95
2022-10-03T17:37:15.157Z,5.35
2022-10-03T17:40:04.436Z,12.50
2022-10-03T17:42:42.145Z,13.38
2022-10-03T17:45:30.655Z,9.77
2022-10-03T17:48:01.508Z,5.53
2022-10-03T17:50:36.036Z,4.10
2022-10-03T17:53:05.179Z,3.35
2022-10-03T17:55:38.867Z,3.95
2022-10-03T17:58:12.466Z,4.28
2022-10-03T18:00:58.133Z,3.88
2022-10-03T18:03:32.685Z,4.25
2022-10-03T18:06:24.430Z,3.75
2022-10-03T18:08:54.278Z,3.55
2022-10-03T18:11:25.258Z,4.07
2022-10-03T18:14:03.074Z,4.30
2022-10-03T18:16:35.952Z,4.10
2022-10-03T18:19:21.926Z,4.70
2022-10-03T18:22:03.609Z,4.75
2022-10-03T18:24:45.930Z,5.15
2022-10-03T18:27:52.218Z,10.32
2022-10-03T18:30:23.272Z,7.13
2022-10-03T18:32:52.938Z,7.15
2022-10-03T18:35:23.424Z,6.97
2022-10-03T18:38:00.499Z,7.05
2022-10-03T18:40:30.779Z,6.80
2022-10-03T18:43:00.911Z,6.00
2022-10-03T18:45:32.345Z,4.28
2022-10-03T18:48:08.300Z,3.45
2022-10-03T18:50:52.524Z,3.55
2022-10-03T18:53:28.399Z,3.92
2022-10-03T18:56:00.732Z,4.75
2022-10-03T18:58:33.650Z,8.15
2022-10-03T19:01:07.854Z,6.68
2022-10-03T19:03:39.732Z,6.22
2022-10-03T19:06:19.369Z,5.68
2022-10-03T19:08:52.942Z,4.25
2022-10-03T19:11:25.624Z,5.43
2022-10-03T19:14:01.807Z,4.68
2022-10-03T19:16:43.178Z,4.47
2022-10-03T19:19:19.166Z,4.85
2022-10-03T19:21:48.730Z,4.43
2022-10-03T19:24:34.509Z,5.10
2022-10-03T19:27:16.844Z,5.50
2022-10-03T19:29:48.902Z,5.22
2022-10-03T19:32:24.271Z,4.05
2022-10-03T19:34:54.647Z,3.50
2022-10-03T19:37:45.081Z,4.15
2022-10-03T19:40:25.194Z,3.95
2022-10-03T19:42:59.516Z,3.38
2022-10-03T19:45:27.959Z,3.95
2022-10-03T19:47:59.560Z,4.03
2022-10-03T19:50:30.519Z,4.10
2022-10-03T19:53:00.662Z,4.57
2022-10-03T19:55:37.243Z,3.95
2022-10-03T19:58:13.021Z,4.30
2022-10-03T20:00:50.054Z,4.05
2022-10-03T20:03:24.250Z,3.90
2022-10-03T20:05:59.924Z,3.88
2022-10-03T20:08:35.450Z,3.70
2022-10-03T20:11:22.672Z,3.80
2022-10-03T20:13:51.411Z,3.75
2022-10-03T20:16:22.717Z,3.83
2022-10-03T20:18:53.967Z,4.00
2022-10-03T20:21:27.143Z,3.28
2022-10-03T20:23:56.625Z,3.80
2022-10-03T20:26:34.646Z,4.00
2022-10-03T20:29:16.876Z,3.88
2022-10-03T20:31:46.031Z,3.53
2022-10-03T20:34:18.178Z,3.15
2022-10-03T20:36:50.528Z,3.67
2022-10-03T20:39:22.318Z,3.33
2022-10-03T20:42:05.088Z,3.50
2022-10-03T20:45:02.155Z,2.97
2022-10-03T20:47:49.352Z,2.83
2022-10-03T20:50:25.953Z,4.10
2022-10-03T20:52:57.386Z,4.25
2022-10-03T20:55:29.181Z,5.28
2022-10-03T20:58:16.282Z,5.72
2022-10-03T21:00:47.759Z,4.10
2022-10-03T21:03:27.568Z,4.85
2022-10-03T21:05:58.776Z,4.55
2022-10-03T21:08:29.638Z,6.05
2022-10-03T21:10:59.670Z,5.68
2022-10-03T21:13:34.162Z,6.03
2022-10-03T21:16:04.218Z,5.40
2022-10-03T21:18:34.961Z,4.18
2022-10-03T21:21:09.455Z,3.90
2022-10-03T21:23:44.565Z,4.35
2022-10-03T21:26:13.576Z,4.30
2022-10-03T21:28:43.091Z,4.28
2022-10-03T21:31:28.062Z,3.80
2022-10-03T21:34:04.321Z,3.97
2022-10-03T21:36:39.186Z,4.15
2022-10-03T21:39:18.423Z,4.50
2022-10-03T21:42:03.198Z,4.15
2022-10-03T21:44:45.375Z,3.80
2022-10-03T21:49:55.944Z,3.22
2022-10-03T21:52:36.117Z,3.35
2022-10-03T21:55:45.511Z,3.55
2022-10-03T21:58:27.841Z,6.40
2022-10-03T22:01:05.986Z,8.82
2022-10-03T22:03:42.175Z,6.18
2022-10-03T22:06:19.589Z,5.03
2022-10-03T22:08:50.611Z,5.40
2022-10-03T22:11:30.687Z,3.28
2022-10-03T22:14:08.265Z,3.33
2022-10-03T22:16:43.974Z,3.40
2022-10-03T22:19:20.919Z,3.92
2022-10-03T22:22:05.018Z,4.10
2022-10-03T22:24:44.365Z,3.42
2022-10-03T22:27:19.032Z,3.90
2022-10-03T22:29:57.952Z,4.85
2022-10-03T22:32:34.254Z,4.47
2022-10-03T22:35:18.781Z,4.70
2022-10-03T22:37:47.334Z,4.47
2022-10-03T22:40:15.686Z,5.38
2022-10-03T22:42:47.265Z,4.88
2022-10-03T22:45:17.053Z,4.18
2022-10-03T22:47:52.445Z,3.63
2022-10-03T22:50:26.295Z,4.13
2022-10-03T22:52:55.042Z,4.10
2022-10-03T22:55:25.582Z,3.33
2022-10-03T22:57:54.770Z,3.67
2022-10-03T23:00:25.705Z,4.18
2022-10-03T23:03:00.411Z,3.50
2022-10-03T23:05:52.737Z,4.00
2022-10-03T23:10:57.523Z,4.85
2022-10-03T23:13:38.681Z,4.32
2022-10-03T23:16:17.601Z,4.55
2022-10-03T23:18:57.290Z,4.85
2022-10-03T23:21:26.177Z,5.93
2022-10-03T23:24:04.808Z,4.97
2022-10-03T23:27:06.423Z,4.43
2022-10-03T23:29:34.498Z,4.37
2022-10-03T23:32:06.040Z,3.80
2022-10-03T23:35:17.272Z,4.10
2022-10-03T23:37:47.720Z,3.70
2022-10-03T23:40:29.895Z,5.15
2022-10-03T23:45:31.135Z,3.67
2022-10-03T23:48:04.587Z,3.38
2022-10-03T23:50:42.398Z,4.80
2022-10-03T23:53:23.524Z,4.13
2022-10-03T23:55:51.770Z,4.07
2022-10-03T23:58:27.235Z,11.02
